createdAt,value
2019-04-20T00:00:56.122Z,13.58
2019-04-20T00:03:32.251Z,13.75
2019-04-20T00:05:57.207Z,13.70
2019-04-20T00:08:31.177Z,13.59
2019-04-20T00:11:07.354Z,13.54
2019-04-20T00:13:40.711Z,13.40
2019-04-20T00:16:00.027Z,13.46
2019-04-20T00:18:34.507Z,13.27
2019-04-20T00:21:19.109Z,13.33
2019-04-20T00:23:51.805Z,13.19
2019-04-20T00:27:20.697Z,13.04
2019-04-20T00:29:38.036Z,12.92
2019-04-20T00:32:01.613Z,12.95
2019-04-20T00:34:26.465Z,12.95
2019-04-20T00:36:49.869Z,12.73
2019-04-20T00:39:20.233Z,12.79
2019-04-20T00:41:57.134Z,12.59
2019-04-20T00:44:27.321Z,12.46
2019-04-20T00:47:04.912Z,12.49
2019-04-20T00:49:38.803Z,12.42
2019-04-20T00:52:24.142Z,12.30
2019-04-20T00:54:26.380Z,12.34
2019-04-20T00:57:05.781Z,12.28
2019-04-20T00:59:42.436Z,12.25
2019-04-20T01:02:13.185Z,12.15
2019-04-20T01:04:47.746Z,12.07
2019-04-20T01:07:38.612Z,11.86
2019-04-20T01:10:05.436Z,11.84
2019-04-20T01:12:37.418Z,11.84
2019-04-20T01:15:11.094Z,11.81
2019-04-20T01:17:41.749Z,11.79
2019-04-20T01:20:09.702Z,11.68
2019-04-20T01:22:44.623Z,11.74
2019-04-20T01:25:20.685Z,11.61
2019-04-20T01:28:02.198Z,11.57
2019-04-20T01:30:20.922Z,11.54
2019-04-20T01:33:12.739Z,11.59
2019-04-20T01:35:31.945Z,11.54
2019-04-20T01:38:00.814Z,11.58
2019-04-20T01:40:16.972Z,11.58
2019-04-20T01:42:46.779Z,11.50
2019-04-20T01:45:25.215Z,11.36
2019-04-20T01:47:51.463Z,11.37
2019-04-20T01:50:22.694Z,11.32
2019-04-20T01:53:03.058Z,11.26
2019-04-20T01:55:43.649Z,11.26
2019-04-20T01:58:36.281Z,11.25
2019-04-20T02:01:14.965Z,11.08
2019-04-20T02:03:48.553Z,11.13
2019-04-20T02:06:18.805Z,11.24
2019-04-20T02:08:51.710Z,11.17
2019-04-20T02:11:25.462Z,11.11
2019-04-20T02:13:55.150Z,10.98
2019-04-20T02:16:28.811Z,11.03
2019-04-20T02:19:10.821Z,11.19
2019-04-20T02:21:37.917Z,11.01
2019-04-20T02:23:57.770Z,11.02
2019-04-20T02:26:23.991Z,10.99
2019-04-20T02:29:18.956Z,10.76
2019-04-20T02:32:06.470Z,10.78
2019-04-20T02:42:08.802Z,10.54
2019-04-20T02:44:42.279Z,10.59
2019-04-20T02:47:16.443Z,10.59
2019-04-20T02:57:10.736Z,10.52
2019-04-20T03:02:00.325Z,10.31
2019-04-20T03:04:23.121Z,10.12
2019-04-20T03:06:59.769Z,10.28
2019-04-20T03:09:36.834Z,10.11
2019-04-20T03:12:08.023Z,10.22
2019-04-20T03:14:32.424Z,10.22
2019-04-20T03:17:12.844Z,10.07
2019-04-20T03:19:31.426Z,10.07
2019-04-20T03:22:09.119Z,9.89
2019-04-20T03:24:47.013Z,9.97
2019-04-20T03:27:08.278Z,9.71
2019-04-20T03:30:07.802Z,9.76
2019-04-20T03:35:24.964Z,9.47
2019-04-20T03:37:44.181Z,9.55
2019-04-20T03:40:07.349Z,9.64
2019-04-20T03:42:20.094Z,9.64
2019-04-20T03:44:57.943Z,9.43
2019-04-20T03:47:30.413Z,9.39
2019-04-20T03:50:14.728Z,9.41
2019-04-20T03:52:49.248Z,9.31
2019-04-20T03:55:30.281Z,9.40
2019-04-20T03:58:18.584Z,9.25
2019-04-20T04:01:31.452Z,9.27
2019-04-20T04:04:06.648Z,9.22
2019-04-20T04:06:26.399Z,8.95
2019-04-20T04:09:02.743Z,9.25
2019-04-20T04:11:34.846Z,9.35
2019-04-20T04:13:48.400Z,9.41
2019-04-20T04:16:21.587Z,9.41
2019-04-20T04:18:59.275Z,9.22
2019-04-20T04:21:33.552Z,9.14
2019-04-20T04:24:07.171Z,9.12
2019-04-20T04:26:37.820Z,8.95
2019-04-20T04:29:19.883Z,9.05
2019-04-20T04:31:45.508Z,8.97
2019-04-20T04:34:12.464Z,8.89
2019-04-20T04:36:44.573Z,8.98
2019-04-20T04:39:22.814Z,9.04
2019-04-20T04:41:55.976Z,9.02
2019-04-20T04:44:11.237Z,9.05
2019-04-20T04:46:29.238Z,9.02
2019-04-20T04:49:10.567Z,9.01
2019-04-20T04:51:42.454Z,8.86
2019-04-20T04:54:12.882Z,8.96
2019-04-20T04:56:33.553Z,8.96
2019-04-20T04:59:02.850Z,8.92
2019-04-20T05:01:35.242Z,8.92
2019-04-20T05:04:24.762Z,8.86
2019-04-20T05:06:52.193Z,8.95
2019-04-20T05:09:09.893Z,8.88
2019-04-20T05:11:36.700Z,8.88
2019-04-20T05:14:10.632Z,9.01
2019-04-20T05:16:49.956Z,9.03
2019-04-20T05:19:29.767Z,9.09
2019-04-20T05:22:15.948Z,9.00
2019-04-20T05:25:03.496Z,8.98
2019-04-20T05:27:47.923Z,8.98
2019-04-20T05:29:57.000Z,9.09
2019-04-20T05:32:36.140Z,9.13
2019-04-20T05:35:25.484Z,9.22
2019-04-20T05:37:53.708Z,9.30
2019-04-20T05:40:22.336Z,9.42
2019-04-20T05:43:01.937Z,9.37
2019-04-20T05:45:24.883Z,9.76
2019-04-20T05:47:59.122Z,9.96
2019-04-20T05:50:38.551Z,9.96
2019-04-20T05:53:07.473Z,9.78
2019-04-20T05:55:39.086Z,10.02
2019-04-20T05:58:14.549Z,10.02
2019-04-20T06:00:43.583Z,10.17
2019-04-20T06:03:05.519Z,10.31
2019-04-20T06:05:48.769Z,10.31
2019-04-20T06:08:15.313Z,10.31
2019-04-20T06:10:45.268Z,10.48
2019-04-20T06:13:27.849Z,10.48
2019-04-20T06:16:09.000Z,11.15
2019-04-20T06:19:18.245Z,11.24
2019-04-20T06:21:45.164Z,11.59
2019-04-20T06:24:18.315Z,11.59
2019-04-20T06:27:03.196Z,11.71
2019-04-20T06:29:26.333Z,11.87
2019-04-20T06:32:08.657Z,12.24
2019-04-20T06:34:41.652Z,12.45
2019-04-20T06:37:06.787Z,12.55
2019-04-20T06:42:19.331Z,12.84
2019-04-20T06:44:41.308Z,12.69
2019-04-20T06:47:24.793Z,12.71
2019-04-20T06:49:38.109Z,12.77
2019-04-20T06:52:42.177Z,12.77
2019-04-20T06:55:14.120Z,13.19
2019-04-20T06:58:01.203Z,13.19
2019-04-20T07:00:30.819Z,13.68
2019-04-20T07:02:52.966Z,13.84
2019-04-20T07:05:22.121Z,13.84
2019-04-20T07:07:54.733Z,13.96
2019-04-20T07:10:27.195Z,14.24
2019-04-20T07:12:51.758Z,14.69
2019-04-20T07:15:27.059Z,15.09
2019-04-20T07:20:42.705Z,15.40
2019-04-20T07:23:23.826Z,15.40
2019-04-20T07:25:44.603Z,15.93
2019-04-20T07:28:14.319Z,16.34
2019-04-20T07:30:45.227Z,16.59
2019-04-20T07:33:20.043Z,16.54
2019-04-20T07:35:42.927Z,16.62
2019-04-20T07:40:44.088Z,17.10
2019-04-20T07:43:14.652Z,17.10
2019-04-20T07:45:41.556Z,17.47
2019-04-20T07:48:29.569Z,17.86
2019-04-20T07:50:43.190Z,18.15
2019-04-20T07:53:18.280Z,18.00
2019-04-20T07:55:53.963Z,18.42
2019-04-20T07:58:15.545Z,18.73
2019-04-20T08:01:04.223Z,18.69
2019-04-20T08:03:57.002Z,18.63
2019-04-20T08:06:20.068Z,19.11
2019-04-20T08:08:57.254Z,18.76
2019-04-20T08:11:36.752Z,19.24
2019-04-20T08:14:12.835Z,19.24
2019-04-20T08:19:07.923Z,19.63
2019-04-20T08:21:40.507Z,19.70
2019-04-20T08:26:26.930Z,20.07
2019-04-20T08:29:02.491Z,20.21
2019-04-20T08:32:08.779Z,20.72
2019-04-20T08:34:42.039Z,20.60
2019-04-20T08:37:09.837Z,20.93
2019-04-20T08:39:52.159Z,20.94
2019-04-20T08:42:11.715Z,20.80
2019-04-20T08:45:02.976Z,21.40
2019-04-20T08:47:27.885Z,21.35
2019-04-20T08:50:19.309Z,21.27
2019-04-20T08:53:07.184Z,21.45
2019-04-20T08:55:10.560Z,21.79
2019-04-20T08:57:26.911Z,21.42
2019-04-20T08:59:59.581Z,21.16
2019-04-20T09:02:28.085Z,21.29
2019-04-20T09:05:03.194Z,21.17
2019-04-20T09:07:31.554Z,21.29
2019-04-20T09:10:25.330Z,21.63
2019-04-20T09:12:45.282Z,21.64
2019-04-20T09:15:01.604Z,21.64
2019-04-20T09:17:44.950Z,21.99
2019-04-20T09:20:14.692Z,22.01
2019-04-20T09:23:02.183Z,22.01
2019-04-20T09:25:48.673Z,22.82
2019-04-20T09:28:19.430Z,22.82
2019-04-20T09:30:50.478Z,22.88
2019-04-20T09:34:02.750Z,23.20
2019-04-20T09:36:38.603Z,23.54
2019-04-20T09:39:18.602Z,24.02
2019-04-20T09:42:00.359Z,24.16
2019-04-20T09:44:24.558Z,23.90
2019-04-20T09:46:56.938Z,24.68
2019-04-20T09:49:38.748Z,24.68
2019-04-20T09:52:11.233Z,25.11
2019-04-20T09:54:48.171Z,24.78
2019-04-20T09:57:19.711Z,24.96
2019-04-20T09:59:51.306Z,25.25
2019-04-20T10:02:06.823Z,25.58
2019-04-20T10:04:31.250Z,24.97
2019-04-20T10:07:08.889Z,24.97
2019-04-20T10:09:37.502Z,25.48
2019-04-20T10:12:03.605Z,26.10
2019-04-20T10:14:35.215Z,25.92
2019-04-20T10:17:05.682Z,25.73
2019-04-20T10:19:38.173Z,25.57
2019-04-20T10:22:08.549Z,25.57
2019-04-20T10:24:38.861Z,26.54
2019-04-20T10:27:08.394Z,26.54
2019-04-20T10:29:37.638Z,26.04
2019-04-20T10:32:11.071Z,26.70
2019-04-20T10:34:38.839Z,26.55
2019-04-20T10:37:11.487Z,26.42
2019-04-20T10:39:42.642Z,25.89
2019-04-20T10:42:12.233Z,26.32
2019-04-20T10:44:41.468Z,26.75
2019-04-20T10:47:11.378Z,27.17
2019-04-20T10:49:40.839Z,26.67
2019-04-20T10:52:10.151Z,26.98
2019-04-20T10:54:40.420Z,27.13
2019-04-20T10:57:09.887Z,26.46
2019-04-20T10:59:39.423Z,27.18
2019-04-20T11:02:09.921Z,26.99
2019-04-20T11:04:39.311Z,26.36
2019-04-20T11:07:08.534Z,27.13
2019-04-20T11:09:38.714Z,27.13
2019-04-20T11:12:08.460Z,26.91
2019-04-20T11:14:41.889Z,26.25
2019-04-20T11:17:08.716Z,26.70
2019-04-20T11:19:39.114Z,27.53
2019-04-20T11:22:08.598Z,26.55
2019-04-20T11:24:38.566Z,26.55
2019-04-20T11:27:08.070Z,26.94
2019-04-20T11:29:38.013Z,26.76
2019-04-20T11:32:07.442Z,26.79
2019-04-20T11:34:39.915Z,26.96
2019-04-20T11:37:08.819Z,27.92
2019-04-20T11:39:39.134Z,26.77
2019-04-20T11:42:09.859Z,27.17
2019-04-20T11:44:39.203Z,27.29
2019-04-20T11:47:08.579Z,27.36
2019-04-20T11:49:37.880Z,28.03
2019-04-20T11:52:07.769Z,27.87
2019-04-20T11:54:37.446Z,27.18
2019-04-20T11:57:07.125Z,28.00
2019-04-20T11:59:37.134Z,28.00
2019-04-20T12:02:44.298Z,28.22
2019-04-20T12:05:24.952Z,27.80
2019-04-20T12:07:56.649Z,28.10
2019-04-20T12:10:27.622Z,28.13
2019-04-20T12:12:57.534Z,27.95
2019-04-20T12:15:26.889Z,28.29
2019-04-20T12:17:55.994Z,29.16
2019-04-20T12:23:00.307Z,28.79
2019-04-20T12:25:32.877Z,28.79
2019-04-20T12:28:02.336Z,27.71
2019-04-20T12:30:31.601Z,28.30
2019-04-20T12:33:02.183Z,28.55
2019-04-20T12:35:32.032Z,28.77
2019-04-20T12:38:03.073Z,28.08
2019-04-20T12:40:32.474Z,28.53
2019-04-20T12:43:01.525Z,28.18
2019-04-20T12:45:31.517Z,29.28
2019-04-20T12:48:01.765Z,28.96
2019-04-20T12:50:39.541Z,28.96
2019-04-20T12:53:10.703Z,28.74
2019-04-20T12:55:40.892Z,28.83
2019-04-20T12:58:10.559Z,29.75
2019-04-20T13:00:45.938Z,29.68
2019-04-20T13:03:15.293Z,29.68
2019-04-20T13:05:45.853Z,28.83
2019-04-20T13:08:23.306Z,28.83
2019-04-20T13:10:54.607Z,29.40
2019-04-20T13:13:44.228Z,28.46
2019-04-20T13:16:32.368Z,28.43
2019-04-20T13:19:03.732Z,28.43
2019-04-20T13:21:33.007Z,28.91
2019-04-20T13:24:03.250Z,28.49
2019-04-20T13:26:33.260Z,28.49
2019-04-20T13:29:02.655Z,29.91
2019-04-20T13:31:31.727Z,29.66
2019-04-20T13:34:01.504Z,29.42
2019-04-20T13:36:32.439Z,29.14
2019-04-20T13:39:01.882Z,28.36
2019-04-20T13:41:31.720Z,28.90
2019-04-20T13:44:03.124Z,28.11
2019-04-20T13:46:33.073Z,28.79
2019-04-20T13:49:02.973Z,28.74
2019-04-20T13:51:32.851Z,28.96
2019-04-20T13:54:07.405Z,29.09
2019-04-20T13:56:33.990Z,29.69
2019-04-20T13:59:27.875Z,29.76
2019-04-20T14:02:05.090Z,28.16
2019-04-20T14:04:38.929Z,29.12
2019-04-20T14:07:09.377Z,29.23
2019-04-20T14:09:39.575Z,29.64
2019-04-20T14:12:16.200Z,28.72
2019-04-20T14:14:41.265Z,29.73
2019-04-20T14:17:10.890Z,29.88
2019-04-20T14:19:41.106Z,29.25
2019-04-20T14:22:10.452Z,29.69
2019-04-20T14:24:40.357Z,29.33
2019-04-20T14:27:10.568Z,29.30
2019-04-20T14:29:41.193Z,29.24
2019-04-20T14:32:11.982Z,29.13
2019-04-20T14:34:42.865Z,28.98
2019-04-20T14:37:12.929Z,29.34
2019-04-20T14:39:43.498Z,28.68
2019-04-20T14:42:23.207Z,28.68
2019-04-20T14:44:43.777Z,27.81
2019-04-20T14:47:13.891Z,28.48
2019-04-20T14:49:44.627Z,28.48
2019-04-20T14:52:15.530Z,28.61
2019-04-20T14:54:45.653Z,29.15
2019-04-20T14:57:15.007Z,28.19
2019-04-20T14:59:51.612Z,29.10
2019-04-20T15:02:22.662Z,29.06
2019-04-20T15:04:52.761Z,29.06
2019-04-20T15:07:22.612Z,28.95
2019-04-20T15:09:55.182Z,29.11
2019-04-20T15:12:36.561Z,28.57
2019-04-20T15:14:56.505Z,28.30
2019-04-20T15:17:35.262Z,28.30
2019-04-20T15:20:23.695Z,28.52
2019-04-20T15:22:55.349Z,28.52
2019-04-20T15:25:25.472Z,28.05
2019-04-20T15:27:54.713Z,28.01
2019-04-20T15:30:24.999Z,27.97
2019-04-20T15:32:54.645Z,28.17
2019-04-20T15:35:24.772Z,27.95
2019-04-20T15:37:55.319Z,27.46
2019-04-20T15:40:24.711Z,27.79
2019-04-20T15:43:01.058Z,27.81
2019-04-20T15:45:25.695Z,27.82
2019-04-20T15:47:56.207Z,27.31
2019-04-20T15:50:25.719Z,27.23
2019-04-20T15:52:58.390Z,27.16
2019-04-20T15:55:32.030Z,27.20
2019-04-20T15:57:57.661Z,27.18
2019-04-20T16:00:28.563Z,27.70
2019-04-20T16:03:09.606Z,26.81
2019-04-20T16:05:42.996Z,27.26
2019-04-20T16:08:30.351Z,26.58
2019-04-20T16:10:59.653Z,26.09
2019-04-20T16:13:36.126Z,26.57
2019-04-20T16:15:59.775Z,26.82
2019-04-20T16:18:30.597Z,26.54
2019-04-20T16:21:07.996Z,26.20
2019-04-20T16:23:42.990Z,26.67
2019-04-20T16:26:25.895Z,26.49
2019-04-20T16:28:57.678Z,26.28
2019-04-20T16:31:26.929Z,25.57
2019-04-20T16:33:58.517Z,26.01
2019-04-20T16:36:28.148Z,26.05
2019-04-20T16:38:57.654Z,26.05
2019-04-20T16:41:26.846Z,25.90
2019-04-20T16:43:57.403Z,25.71
2019-04-20T16:46:28.012Z,26.04
2019-04-20T16:48:57.322Z,25.74
2019-04-20T16:51:27.012Z,25.74
2019-04-20T16:53:59.675Z,25.50
2019-04-20T16:56:28.824Z,25.23
2019-04-20T16:59:05.590Z,25.47
2019-04-20T17:01:29.700Z,25.36
2019-04-20T17:04:07.011Z,25.36
2019-04-20T17:06:31.996Z,25.22
2019-04-20T17:09:02.992Z,25.18
2019-04-20T17:11:33.971Z,25.23
2019-04-20T17:14:03.684Z,25.41
2019-04-20T17:16:33.590Z,24.87
2019-04-20T17:19:03.825Z,24.79
2019-04-20T17:21:40.271Z,24.62
2019-04-20T17:24:11.343Z,24.58
2019-04-20T17:26:50.747Z,24.72
2019-04-20T17:29:26.180Z,25.01
2019-04-20T17:32:27.466Z,25.01
2019-04-20T17:37:56.326Z,24.40
2019-04-20T17:40:46.123Z,24.22
2019-04-20T17:43:06.558Z,24.22
2019-04-20T17:45:41.558Z,23.94
2019-04-20T17:48:17.412Z,24.11
2019-04-20T17:50:56.157Z,23.61
2019-04-20T17:53:29.345Z,23.96
2019-04-20T17:55:53.108Z,23.71
2019-04-20T17:58:27.973Z,23.39
2019-04-20T18:01:22.101Z,23.49
2019-04-20T18:04:24.487Z,22.93
2019-04-20T18:06:27.257Z,23.02
2019-04-20T18:09:00.418Z,23.19
2019-04-20T18:11:20.110Z,23.13
2019-04-20T18:13:46.766Z,22.98
2019-04-20T18:16:45.337Z,22.94
2019-04-20T18:19:08.476Z,22.38
2019-04-20T18:21:40.152Z,22.36
2019-04-20T18:24:14.518Z,22.14
2019-04-20T18:26:59.166Z,22.22
2019-04-20T18:29:32.559Z,21.90
2019-04-20T18:31:55.933Z,21.62
2019-04-20T18:34:36.328Z,21.62
2019-04-20T18:37:10.700Z,21.81
2019-04-20T18:39:46.265Z,21.85
2019-04-20T18:42:18.590Z,21.61
2019-04-20T18:45:00.958Z,21.45
2019-04-20T18:47:33.123Z,21.23
2019-04-20T18:49:50.508Z,20.96
2019-04-20T18:52:14.037Z,20.96
2019-04-20T18:54:47.455Z,21.06
2019-04-20T18:57:21.804Z,20.73
2019-04-20T18:59:52.265Z,20.56
2019-04-20T19:02:23.818Z,20.75
2019-04-20T19:04:50.087Z,20.75
2019-04-20T19:07:19.789Z,20.54
2019-04-20T19:09:53.275Z,20.41
2019-04-20T19:12:30.100Z,20.41
2019-04-20T19:15:31.697Z,19.97
2019-04-20T19:18:05.720Z,19.84
2019-04-20T19:20:33.035Z,19.92
2019-04-20T19:23:02.406Z,19.88
2019-04-20T19:25:36.766Z,19.74
2019-04-20T19:28:04.698Z,19.42
2019-04-20T19:30:40.704Z,19.54
2019-04-20T19:33:19.157Z,19.54
2019-04-20T19:35:48.136Z,19.23
2019-04-20T19:38:12.598Z,19.15
2019-04-20T19:40:47.923Z,19.13
2019-04-20T19:43:20.813Z,19.08
2019-04-20T19:46:24.359Z,19.15
2019-04-20T19:48:24.079Z,18.88
2019-04-20T19:51:05.541Z,18.64
2019-04-20T19:53:36.674Z,18.54
2019-04-20T19:56:00.066Z,18.36
2019-04-20T19:58:33.195Z,18.25
2019-04-20T20:00:53.652Z,18.25
2019-04-20T20:03:22.073Z,18.19
2019-04-20T20:05:53.852Z,18.09
2019-04-20T20:08:27.245Z,18.23
2019-04-20T20:10:54.809Z,17.87
2019-04-20T20:13:34.599Z,18.29
2019-04-20T20:16:02.465Z,18.29
2019-04-20T20:18:46.565Z,18.10
2019-04-20T20:21:15.198Z,18.10
2019-04-20T20:23:34.180Z,17.88
2019-04-20T20:26:07.179Z,18.07
2019-04-20T20:28:43.671Z,17.84
2019-04-20T20:31:17.015Z,17.88
2019-04-20T20:33:53.439Z,17.96
2019-04-20T20:36:12.759Z,17.89
2019-04-20T20:38:45.762Z,17.57
2019-04-20T20:41:22.899Z,17.43
2019-04-20T20:43:58.356Z,17.72
2019-04-20T20:46:25.480Z,17.72
2019-04-20T20:49:04.849Z,17.54
2019-04-20T20:51:39.157Z,17.75
2019-04-20T20:53:56.564Z,17.49
2019-04-20T20:56:24.481Z,17.32
2019-04-20T20:58:59.484Z,17.32
2019-04-20T21:01:25.394Z,17.45
2019-04-20T21:03:53.098Z,17.29
2019-04-20T21:06:22.411Z,17.26
2019-04-20T21:08:55.724Z,17.07
2019-04-20T21:11:27.504Z,17.07
2019-04-20T21:13:54.604Z,17.19
2019-04-20T21:16:33.402Z,16.83
2019-04-20T21:19:17.201Z,16.66
2019-04-20T21:25:40.876Z,16.55
2019-04-20T21:28:06.887Z,16.64
2019-04-20T21:30:41.907Z,16.42
2019-04-20T21:33:20.725Z,16.47
2019-04-20T21:35:52.124Z,16.38
2019-04-20T21:38:23.148Z,16.38
2019-04-20T21:41:02.121Z,16.24
2019-04-20T21:43:27.815Z,16.34
2019-04-20T21:45:59.464Z,16.34
2019-04-20T21:48:38.047Z,15.80
2019-04-20T21:51:08.625Z,16.01
2019-04-20T21:53:57.899Z,16.06
2019-04-20T21:56:30.012Z,15.89
2019-04-20T21:59:02.474Z,15.87
2019-04-20T22:01:37.517Z,16.06
2019-04-20T22:04:02.439Z,15.86
2019-04-20T22:06:32.097Z,15.86
2019-04-20T22:09:04.040Z,15.89
2019-04-20T22:11:33.785Z,15.94
2019-04-20T22:14:09.471Z,15.82
2019-04-20T22:16:40.979Z,15.84
2019-04-20T22:19:22.407Z,15.62
2019-04-20T22:21:50.109Z,15.50
2019-04-20T22:24:25.327Z,15.58
2019-04-20T22:26:51.605Z,15.48
2019-04-20T22:29:08.229Z,15.48
2019-04-20T22:31:38.253Z,15.45
2019-04-20T22:34:19.253Z,15.26
2019-04-20T22:36:48.214Z,15.09
2019-04-20T22:39:24.561Z,15.15
2019-04-20T22:42:01.127Z,15.11
2019-04-20T22:44:28.342Z,14.90
2019-04-20T22:46:56.630Z,14.95
2019-04-20T22:49:39.994Z,14.63
2019-04-20T22:52:06.397Z,14.74
2019-04-20T22:54:42.308Z,14.61
2019-04-20T22:57:08.743Z,14.74
2019-04-20T22:59:38.513Z,14.50
2019-04-20T23:02:02.349Z,14.50
2019-04-20T23:04:31.043Z,14.48
2019-04-20T23:07:00.970Z,14.48
2019-04-20T23:09:34.194Z,14.19
2019-04-20T23:12:09.190Z,13.95
2019-04-20T23:14:34.286Z,14.01
2019-04-20T23:17:04.279Z,13.88
2019-04-20T23:19:41.659Z,13.81
2019-04-20T23:22:13.365Z,13.55
2019-04-20T23:24:41.465Z,13.57
2019-04-20T23:27:17.045Z,13.57
2019-04-20T23:29:42.182Z,13.17
2019-04-20T23:32:14.534Z,13.10
2019-04-20T23:34:44.641Z,13.10
2019-04-20T23:37:20.543Z,12.98
2019-04-20T23:39:47.258Z,13.13
2019-04-20T23:42:19.905Z,12.89
2019-04-20T23:45:05.724Z,12.89
2019-04-20T23:47:46.667Z,12.73
2019-04-20T23:50:34.044Z,12.47
2019-04-20T23:53:05.508Z,12.74
2019-04-20T23:55:17.538Z,12.67
2019-04-20T23:57:54.767Z,12.70
